createdAt,value
2018-09-29T00:01:07.138Z,10.50
2018-09-29T00:03:36.198Z,10.40
2018-09-29T00:06:05.273Z,10.40
2018-09-29T00:08:34.365Z,10.30
2018-09-29T00:11:03.430Z,10.20
2018-09-29T00:13:32.473Z,10.30
2018-09-29T00:16:01.569Z,10.30
2018-09-29T00:18:30.646Z,10.30
2018-09-29T00:21:00.181Z,10.30
2018-09-29T00:23:29.274Z,10.30
2018-09-29T00:25:58.403Z,10.40
2018-09-29T00:28:27.512Z,10.30
2018-09-29T00:30:56.541Z,10.30
2018-09-29T00:33:25.564Z,10.30
2018-09-29T00:35:54.618Z,10.30
2018-09-29T00:38:23.624Z,10.30
2018-09-29T00:40:52.712Z,10.20
2018-09-29T00:43:21.770Z,10.10
2018-09-29T00:45:50.799Z,10.00
2018-09-29T00:48:19.794Z,9.90
2018-09-29T00:50:48.809Z,9.90
2018-09-29T00:53:17.864Z,9.90
2018-09-29T00:55:46.953Z,9.90
2018-09-29T00:58:16.034Z,9.80
2018-09-29T01:00:45.039Z,9.80
2018-09-29T01:03:14.444Z,9.80
2018-09-29T01:05:43.550Z,9.70
2018-09-29T01:08:12.621Z,9.60
2018-09-29T01:10:41.698Z,9.50
2018-09-29T01:13:10.865Z,9.50
2018-09-29T01:15:39.961Z,9.50
2018-09-29T01:18:09.208Z,9.30
2018-09-29T01:20:38.231Z,9.30
2018-09-29T01:23:07.317Z,9.20
2018-09-29T01:25:36.446Z,9.10
2018-09-29T01:28:05.503Z,9.00
2018-09-29T01:30:34.587Z,9.00
2018-09-29T01:33:03.661Z,9.00
2018-09-29T01:35:32.822Z,9.00
2018-09-29T01:38:01.846Z,9.00
2018-09-29T01:40:31.080Z,9.10
2018-09-29T01:43:00.144Z,9.10
2018-09-29T01:45:29.163Z,9.00
2018-09-29T01:47:58.236Z,9.00
2018-09-29T01:50:27.227Z,8.90
2018-09-29T01:52:56.263Z,8.90
2018-09-29T01:55:25.347Z,8.90
2018-09-29T01:57:54.376Z,8.90
2018-09-29T02:00:23.407Z,8.90
2018-09-29T02:02:52.482Z,8.90
2018-09-29T02:05:21.794Z,9.00
2018-09-29T02:07:50.890Z,9.10
2018-09-29T02:10:20.093Z,9.20
2018-09-29T02:12:49.232Z,9.20
2018-09-29T02:15:18.235Z,9.10
2018-09-29T02:17:47.293Z,9.10
2018-09-29T02:20:16.366Z,9.10
2018-09-29T02:22:45.415Z,9.00
2018-09-29T02:25:14.467Z,9.10
2018-09-29T02:27:43.487Z,8.90
2018-09-29T02:30:12.551Z,8.80
2018-09-29T02:32:41.602Z,8.60
2018-09-29T02:35:10.612Z,8.50
2018-09-29T02:37:39.663Z,8.50
2018-09-29T02:40:08.677Z,8.40
2018-09-29T02:42:37.693Z,8.30
2018-09-29T02:45:07.637Z,8.20
2018-09-29T02:47:37.025Z,8.00
2018-09-29T02:50:06.472Z,7.90
2018-09-29T02:52:35.905Z,7.80
2018-09-29T02:55:05.600Z,7.80
2018-09-29T02:57:34.645Z,7.70
2018-09-29T03:00:03.737Z,7.70
2018-09-29T03:02:32.806Z,7.60
2018-09-29T03:05:01.828Z,7.60
2018-09-29T03:07:30.877Z,7.60
2018-09-29T03:09:59.973Z,7.50
2018-09-29T03:12:29.044Z,7.50
2018-09-29T03:14:58.131Z,7.50
2018-09-29T03:17:27.109Z,7.50
2018-09-29T03:19:56.206Z,7.40
2018-09-29T03:22:25.244Z,7.50
2018-09-29T03:24:54.274Z,7.50
2018-09-29T03:27:23.322Z,7.50
2018-09-29T03:29:52.332Z,7.50
2018-09-29T03:32:21.385Z,7.40
2018-09-29T03:34:50.598Z,7.40
2018-09-29T03:37:19.651Z,7.40
2018-09-29T03:39:48.683Z,7.30
2018-09-29T03:42:17.740Z,7.30
2018-09-29T03:44:46.734Z,7.40
2018-09-29T03:47:15.772Z,7.40
2018-09-29T03:49:44.995Z,7.40
2018-09-29T03:52:14.193Z,7.30
2018-09-29T03:54:43.196Z,7.30
2018-09-29T03:57:12.225Z,7.30
2018-09-29T03:59:41.271Z,7.30
2018-09-29T04:02:10.329Z,7.20
2018-09-29T04:04:39.383Z,7.20
2018-09-29T04:07:08.408Z,7.10
2018-09-29T04:09:37.460Z,7.10
2018-09-29T04:12:06.502Z,7.10
2018-09-29T04:14:35.576Z,7.10
2018-09-29T04:17:04.660Z,7.10
2018-09-29T04:19:33.695Z,7.10
2018-09-29T04:22:02.686Z,7.00
2018-09-29T04:24:31.724Z,7.00
2018-09-29T04:27:00.735Z,7.00
2018-09-29T04:29:29.770Z,7.00
2018-09-29T04:31:59.158Z,7.00
2018-09-29T04:34:28.155Z,7.00
2018-09-29T04:36:57.230Z,7.00
2018-09-29T04:39:26.402Z,7.00
2018-09-29T04:41:56.072Z,6.90
2018-09-29T04:44:25.170Z,6.90
2018-09-29T04:46:54.190Z,6.90
2018-09-29T04:49:24.879Z,6.90
2018-09-29T04:51:53.919Z,6.90
2018-09-29T04:54:22.929Z,6.90
2018-09-29T04:56:51.926Z,6.90
2018-09-29T04:59:21.064Z,6.80
2018-09-29T05:01:50.080Z,6.80
2018-09-29T05:04:19.189Z,6.80
2018-09-29T05:06:48.212Z,6.80
2018-09-29T05:09:17.388Z,6.90
2018-09-29T05:11:46.984Z,6.90
2018-09-29T05:14:16.112Z,6.90
2018-09-29T05:16:45.093Z,6.80
2018-09-29T05:19:14.087Z,6.90
2018-09-29T05:21:43.158Z,6.80
2018-09-29T05:24:12.245Z,6.80
2018-09-29T05:26:41.274Z,6.80
2018-09-29T05:29:10.604Z,6.70
2018-09-29T05:31:39.598Z,6.70
2018-09-29T05:34:08.605Z,6.70
2018-09-29T05:36:37.906Z,6.80
2018-09-29T05:39:07.895Z,6.70
2018-09-29T05:41:36.979Z,6.70
2018-09-29T05:44:06.063Z,6.70
2018-09-29T05:46:35.047Z,6.70
2018-09-29T05:49:04.098Z,6.70
2018-09-29T05:51:33.268Z,6.70
2018-09-29T05:54:02.403Z,6.70
2018-09-29T05:56:31.621Z,6.70
2018-09-29T05:59:00.682Z,6.70
2018-09-29T06:01:29.705Z,6.70
2018-09-29T06:03:59.159Z,6.70
2018-09-29T06:06:30.723Z,6.80
2018-09-29T06:09:00.934Z,6.80
2018-09-29T06:11:29.975Z,6.80
2018-09-29T06:13:59.038Z,6.80
2018-09-29T06:16:28.059Z,6.70
2018-09-29T06:18:57.091Z,6.80
2018-09-29T06:21:26.870Z,6.80
2018-09-29T06:23:55.904Z,6.80
2018-09-29T06:26:24.957Z,6.80
2018-09-29T06:28:54.235Z,6.80
2018-09-29T06:31:23.248Z,6.80
2018-09-29T06:33:52.271Z,6.90
2018-09-29T06:36:21.307Z,7.00
2018-09-29T06:38:50.352Z,7.00
2018-09-29T06:41:19.362Z,7.10
2018-09-29T06:43:48.541Z,7.20
2018-09-29T06:46:17.532Z,7.20
2018-09-29T06:48:46.619Z,7.20
2018-09-29T06:51:15.758Z,7.30
2018-09-29T06:53:44.760Z,7.30
2018-09-29T06:56:13.841Z,7.40
2018-09-29T06:58:42.872Z,7.50
2018-09-29T07:01:11.925Z,7.50
2018-09-29T07:03:40.964Z,7.50
2018-09-29T07:06:10.223Z,7.60
2018-09-29T07:08:39.274Z,7.70
2018-09-29T07:11:08.312Z,7.70
2018-09-29T07:13:37.381Z,8.00
2018-09-29T07:16:06.458Z,8.20
2018-09-29T07:18:35.502Z,8.40
2018-09-29T07:21:04.516Z,8.60
2018-09-29T07:23:33.756Z,8.60
2018-09-29T07:26:02.799Z,8.70
2018-09-29T07:28:31.824Z,8.80
2018-09-29T07:31:01.049Z,9.00
2018-09-29T07:33:30.076Z,9.20
2018-09-29T07:35:59.114Z,9.20
2018-09-29T07:38:28.287Z,9.10
2018-09-29T07:40:57.331Z,9.20
2018-09-29T07:43:26.354Z,9.20
2018-09-29T07:45:55.367Z,9.30
2018-09-29T07:48:24.403Z,9.40
2018-09-29T07:50:53.406Z,9.30
2018-09-29T07:53:22.589Z,9.30
2018-09-29T07:55:51.706Z,9.50
2018-09-29T07:58:21.126Z,9.70
2018-09-29T08:00:50.156Z,9.80
2018-09-29T08:03:19.381Z,10.00
2018-09-29T08:05:48.511Z,10.20
2018-09-29T08:08:17.616Z,10.40
2018-09-29T08:10:46.840Z,10.40
2018-09-29T08:13:16.031Z,10.40
2018-09-29T08:15:45.088Z,10.40
2018-09-29T08:18:14.132Z,10.50
2018-09-29T08:20:43.330Z,10.50
2018-09-29T08:23:12.366Z,10.70
2018-09-29T08:25:41.373Z,10.90
2018-09-29T08:28:10.373Z,11.20
2018-09-29T08:30:39.462Z,11.30
2018-09-29T08:33:09.046Z,11.50
2018-09-29T08:35:38.097Z,11.80
2018-09-29T08:38:07.126Z,12.10
2018-09-29T08:40:36.254Z,12.30
2018-09-29T08:43:05.560Z,12.40
2018-09-29T08:45:34.622Z,12.60
2018-09-29T08:48:03.898Z,12.70
2018-09-29T08:50:32.927Z,12.80
2018-09-29T08:53:02.203Z,13.00
2018-09-29T08:55:31.981Z,13.00
2018-09-29T08:58:01.052Z,13.10
2018-09-29T09:00:30.116Z,13.20
2018-09-29T09:02:59.174Z,13.30
2018-09-29T09:05:28.294Z,13.40
2018-09-29T09:07:57.377Z,13.50
2018-09-29T09:10:26.650Z,13.50
2018-09-29T09:12:57.012Z,13.60
2018-09-29T09:15:26.577Z,13.50
2018-09-29T09:17:55.867Z,13.50
2018-09-29T09:20:24.916Z,13.60
2018-09-29T09:22:54.018Z,13.70
2018-09-29T09:25:23.643Z,13.80
2018-09-29T09:27:52.938Z,14.00
2018-09-29T09:30:22.048Z,14.00
2018-09-29T09:32:51.207Z,14.00
2018-09-29T09:35:20.227Z,14.20
2018-09-29T09:37:49.327Z,14.40
2018-09-29T09:40:18.391Z,14.40
2018-09-29T09:42:47.545Z,14.30
2018-09-29T09:45:16.689Z,14.40
2018-09-29T09:47:45.773Z,14.50
2018-09-29T09:50:14.878Z,14.70
2018-09-29T09:52:43.888Z,14.70
2018-09-29T09:55:12.931Z,14.80
2018-09-29T09:57:41.953Z,14.90
2018-09-29T10:00:11.152Z,15.00
2018-09-29T10:02:42.468Z,15.10
2018-09-29T10:05:11.575Z,15.10
2018-09-29T10:07:40.700Z,15.30
2018-09-29T10:10:10.747Z,15.40
2018-09-29T10:12:40.413Z,15.50
2018-09-29T10:15:09.592Z,15.60
2018-09-29T10:17:39.004Z,15.70
2018-09-29T10:20:08.463Z,15.90
2018-09-29T10:22:37.665Z,16.10
2018-09-29T10:25:06.973Z,16.10
2018-09-29T10:27:36.367Z,16.20
2018-09-29T10:30:06.980Z,16.20
2018-09-29T10:32:36.061Z,16.10
2018-09-29T10:35:05.092Z,16.30
2018-09-29T10:37:34.480Z,16.50
2018-09-29T10:40:10.085Z,16.60
2018-09-29T10:42:39.272Z,16.80
2018-09-29T10:45:08.338Z,17.00
2018-09-29T10:47:37.466Z,17.20
2018-09-29T10:50:06.984Z,17.60
2018-09-29T10:52:36.003Z,18.30
2018-09-29T10:55:05.500Z,20.70
2018-09-29T10:57:34.556Z,22.90
2018-09-29T11:00:04.955Z,23.50
2018-09-29T11:02:34.328Z,23.80
2018-09-29T11:05:03.595Z,24.50
2018-09-29T11:07:32.984Z,26.40
2018-09-29T11:10:01.982Z,26.80
2018-09-29T11:12:31.135Z,26.80
2018-09-29T11:15:00.170Z,27.90
2018-09-29T11:17:29.199Z,28.30
2018-09-29T11:19:58.606Z,28.20
2018-09-29T11:22:27.639Z,28.70
2018-09-29T11:24:56.738Z,29.00
2018-09-29T11:27:25.796Z,30.20
2018-09-29T11:29:54.809Z,29.60
2018-09-29T11:32:23.874Z,28.50
2018-09-29T11:34:52.902Z,29.10
2018-09-29T11:37:21.979Z,28.70
2018-09-29T11:39:51.035Z,28.90
2018-09-29T11:42:20.367Z,28.30
2018-09-29T11:44:49.705Z,28.70
2018-09-29T11:47:19.440Z,28.20
2018-09-29T11:49:48.445Z,28.30
2018-09-29T11:52:17.498Z,28.00
2018-09-29T11:54:46.502Z,26.50
2018-09-29T11:57:15.716Z,26.00
2018-09-29T11:59:44.736Z,26.20
2018-09-29T12:02:13.849Z,27.20
2018-09-29T12:04:43.008Z,28.30
2018-09-29T12:07:12.614Z,28.70
2018-09-29T12:09:42.477Z,29.80
2018-09-29T12:12:12.093Z,30.20
2018-09-29T12:14:41.704Z,29.40
2018-09-29T12:17:11.253Z,29.50
2018-09-29T12:19:41.090Z,28.10
2018-09-29T12:22:10.744Z,28.70
2018-09-29T12:24:40.489Z,29.80
2018-09-29T12:27:10.895Z,30.50
2018-09-29T12:29:40.604Z,30.50
2018-09-29T12:32:10.396Z,30.10
2018-09-29T12:34:39.982Z,31.40
2018-09-29T12:37:09.723Z,31.50
2018-09-29T12:39:39.368Z,31.90
2018-09-29T12:42:09.021Z,32.20
2018-09-29T12:44:38.620Z,32.40
2018-09-29T12:47:08.376Z,32.50
2018-09-29T12:49:38.874Z,32.10
2018-09-29T12:52:08.470Z,32.30
2018-09-29T12:54:38.095Z,32.20
2018-09-29T12:57:07.718Z,32.10
2018-09-29T12:59:37.509Z,32.40
2018-09-29T13:02:07.181Z,31.80
2018-09-29T13:04:36.849Z,32.00
2018-09-29T13:07:06.481Z,32.50
2018-09-29T13:09:36.096Z,32.20
2018-09-29T13:12:05.814Z,32.60
2018-09-29T13:14:35.431Z,32.70
2018-09-29T13:17:05.173Z,33.20
2018-09-29T13:19:34.791Z,32.50
2018-09-29T13:22:04.468Z,32.90
2018-09-29T13:24:34.070Z,33.30
2018-09-29T13:27:03.671Z,32.70
2018-09-29T13:29:33.297Z,33.30
2018-09-29T13:32:03.186Z,33.60
2018-09-29T13:34:32.891Z,33.70
2018-09-29T13:37:02.553Z,33.60
2018-09-29T13:39:32.826Z,33.30
2018-09-29T13:42:02.434Z,33.10
2018-09-29T13:44:32.044Z,32.90
2018-09-29T13:47:01.614Z,32.60
2018-09-29T13:49:31.302Z,32.70
2018-09-29T13:52:00.904Z,32.10
2018-09-29T13:54:30.504Z,32.20
2018-09-29T13:57:00.143Z,33.40
2018-09-29T13:59:29.744Z,33.70
2018-09-29T14:01:59.318Z,33.10
2018-09-29T14:04:28.981Z,33.30
2018-09-29T14:06:58.537Z,33.80
2018-09-29T14:09:28.178Z,33.90
2018-09-29T14:11:57.744Z,33.80
2018-09-29T14:14:27.410Z,32.60
2018-09-29T14:16:57.029Z,32.20
2018-09-29T14:19:26.599Z,32.90
2018-09-29T14:21:56.259Z,33.20
2018-09-29T14:24:25.841Z,33.50
2018-09-29T14:26:55.660Z,33.00
2018-09-29T14:29:25.262Z,32.90
2018-09-29T14:31:54.903Z,33.10
2018-09-29T14:34:24.562Z,33.10
2018-09-29T14:36:54.355Z,32.90
2018-09-29T14:39:24.180Z,33.40
2018-09-29T14:41:53.911Z,33.10
2018-09-29T14:44:23.674Z,32.80
2018-09-29T14:46:53.414Z,32.50
2018-09-29T14:49:23.222Z,32.90
2018-09-29T14:51:52.910Z,32.70
2018-09-29T14:54:22.646Z,33.10
2018-09-29T14:56:52.315Z,33.40
2018-09-29T14:59:22.061Z,33.10
2018-09-29T15:01:51.733Z,33.30
2018-09-29T15:04:21.419Z,33.50
2018-09-29T15:06:51.187Z,32.90
2018-09-29T15:09:20.836Z,32.70
2018-09-29T15:11:50.444Z,32.20
2018-09-29T15:14:20.127Z,32.10
2018-09-29T15:16:49.731Z,32.20
2018-09-29T15:19:19.481Z,31.60
2018-09-29T15:21:49.053Z,31.60
2018-09-29T15:24:18.829Z,31.00
2018-09-29T15:26:48.411Z,31.30
2018-09-29T15:29:21.821Z,31.10
2018-09-29T15:31:51.382Z,30.90
2018-09-29T15:34:20.967Z,30.90
2018-09-29T15:36:50.621Z,31.20
2018-09-29T15:39:20.424Z,31.30
2018-09-29T15:41:50.135Z,31.00
2018-09-29T15:44:19.730Z,30.00
2018-09-29T15:46:49.358Z,28.40
2018-09-29T15:49:18.960Z,26.40
2018-09-29T15:51:48.136Z,24.40
2018-09-29T15:54:17.176Z,22.80
2018-09-29T15:56:46.205Z,21.70
2018-09-29T15:59:15.227Z,21.00
2018-09-29T16:01:44.324Z,20.50
2018-09-29T16:04:13.433Z,20.00
2018-09-29T16:06:42.455Z,19.60
2018-09-29T16:09:11.661Z,19.30
2018-09-29T16:11:41.131Z,19.00
2018-09-29T16:14:10.406Z,18.80
2018-09-29T16:16:39.442Z,18.70
2018-09-29T16:19:08.696Z,18.60
2018-09-29T16:21:37.875Z,18.60
2018-09-29T16:24:07.581Z,18.40
2018-09-29T16:26:36.765Z,18.30
2018-09-29T16:29:05.893Z,18.20
2018-09-29T16:31:34.990Z,18.10
2018-09-29T16:34:04.049Z,18.00
2018-09-29T16:36:33.138Z,17.90
2018-09-29T16:39:02.535Z,17.80
2018-09-29T16:41:31.858Z,17.70
2018-09-29T16:44:00.897Z,17.60
2018-09-29T16:46:29.908Z,17.50
2018-09-29T16:48:58.979Z,17.40
2018-09-29T16:51:28.017Z,17.30
2018-09-29T16:53:57.059Z,17.20
2018-09-29T16:56:26.104Z,17.00
2018-09-29T16:58:55.098Z,16.90
2018-09-29T17:01:24.140Z,16.80
2018-09-29T17:03:53.163Z,16.60
2018-09-29T17:06:22.655Z,16.50
2018-09-29T17:08:51.721Z,16.40
2018-09-29T17:11:20.728Z,16.20
2018-09-29T17:13:49.760Z,16.10
2018-09-29T17:16:18.853Z,15.90
2018-09-29T17:18:47.904Z,15.70
2018-09-29T17:21:16.976Z,15.60
2018-09-29T17:23:46.049Z,15.40
2018-09-29T17:26:15.162Z,15.30
2018-09-29T17:28:44.274Z,15.10
2018-09-29T17:31:14.167Z,15.00
2018-09-29T17:33:43.203Z,14.90
2018-09-29T17:36:12.234Z,14.80
2018-09-29T17:38:41.254Z,14.70
2018-09-29T17:41:10.419Z,14.60
2018-09-29T17:43:39.469Z,14.50
2018-09-29T17:46:08.717Z,14.30
2018-09-29T17:48:37.784Z,14.20
2018-09-29T17:51:07.056Z,14.10
2018-09-29T17:53:36.597Z,14.00
2018-09-29T17:56:05.620Z,13.90
2018-09-29T17:58:34.668Z,13.80
2018-09-29T18:01:03.706Z,13.80
2018-09-29T18:03:32.735Z,13.70
2018-09-29T18:06:01.825Z,13.70
2018-09-29T18:08:31.107Z,13.70
2018-09-29T18:11:00.547Z,13.60
2018-09-29T18:13:29.731Z,13.60
2018-09-29T18:15:59.028Z,13.50
2018-09-29T18:18:28.110Z,13.50
2018-09-29T18:20:57.194Z,13.40
2018-09-29T18:23:26.282Z,13.40
2018-09-29T18:25:55.348Z,13.40
2018-09-29T18:28:24.414Z,13.40
2018-09-29T18:30:53.425Z,13.30
2018-09-29T18:33:22.473Z,13.20
2018-09-29T18:35:51.639Z,13.10
2018-09-29T18:38:20.891Z,13.00
2018-09-29T18:40:49.986Z,13.00
2018-09-29T18:43:19.244Z,12.90
2018-09-29T18:45:48.363Z,12.90
2018-09-29T18:48:17.437Z,12.80
2018-09-29T18:50:46.460Z,12.80
2018-09-29T18:53:15.504Z,12.70
2018-09-29T18:55:44.543Z,12.60
2018-09-29T18:58:13.870Z,12.60
2018-09-29T19:00:42.908Z,12.50
2018-09-29T19:03:11.938Z,12.50
2018-09-29T19:05:40.951Z,12.50
2018-09-29T19:08:09.990Z,12.40
2018-09-29T19:10:39.071Z,12.30
2018-09-29T19:13:08.141Z,12.30
2018-09-29T19:15:37.202Z,12.30
2018-09-29T19:18:06.321Z,12.20
2018-09-29T19:20:35.404Z,12.20
2018-09-29T19:23:04.904Z,12.20
2018-09-29T19:25:33.997Z,12.10
2018-09-29T19:28:03.094Z,12.00
2018-09-29T19:30:32.159Z,12.00
2018-09-29T19:33:01.562Z,11.80
2018-09-29T19:35:30.629Z,11.90
2018-09-29T19:37:59.655Z,11.80
2018-09-29T19:40:28.834Z,11.80
2018-09-29T19:42:57.931Z,11.70
2018-09-29T19:45:27.587Z,11.60
2018-09-29T19:47:56.612Z,11.60
2018-09-29T19:50:25.655Z,11.50
2018-09-29T19:52:54.761Z,11.50
2018-09-29T19:55:23.828Z,11.40
2018-09-29T19:57:52.901Z,11.40
2018-09-29T20:00:22.206Z,11.30
2018-09-29T20:02:51.229Z,11.20
2018-09-29T20:05:20.258Z,11.20
2018-09-29T20:07:49.281Z,11.20
2018-09-29T20:10:18.394Z,11.20
2018-09-29T20:12:47.611Z,11.20
2018-09-29T20:15:16.678Z,11.10
2018-09-29T20:17:45.756Z,11.10
2018-09-29T20:20:14.820Z,11.10
2018-09-29T20:22:43.878Z,11.10
2018-09-29T20:25:13.256Z,11.10
2018-09-29T20:27:42.349Z,11.00
2018-09-29T20:30:11.416Z,10.90
2018-09-29T20:32:40.504Z,10.90
2018-09-29T20:35:09.735Z,10.80
2018-09-29T20:37:38.803Z,10.80
2018-09-29T20:40:07.889Z,10.70
2018-09-29T20:42:36.956Z,10.70
2018-09-29T20:45:06.401Z,10.60
2018-09-29T20:47:35.449Z,10.50
2018-09-29T20:50:04.562Z,10.50
2018-09-29T20:52:33.611Z,10.40
2018-09-29T20:55:02.652Z,10.30
2018-09-29T20:57:31.644Z,10.30
2018-09-29T21:00:00.715Z,10.40
2018-09-29T21:02:29.723Z,10.30
2018-09-29T21:04:58.776Z,10.40
2018-09-29T21:07:27.785Z,10.40
2018-09-29T21:09:56.921Z,10.30
2018-09-29T21:12:26.496Z,10.30
2018-09-29T21:14:55.589Z,10.20
2018-09-29T21:17:24.939Z,10.20
2018-09-29T21:19:54.054Z,10.20
2018-09-29T21:22:23.143Z,10.20
2018-09-29T21:24:52.173Z,10.10
2018-09-29T21:27:21.241Z,10.10
2018-09-29T21:29:50.256Z,10.00
2018-09-29T21:32:19.260Z,10.10
2018-09-29T21:34:48.565Z,10.00
2018-09-29T21:37:17.603Z,9.90
2018-09-29T21:39:46.684Z,9.90
2018-09-29T21:42:15.710Z,9.90
2018-09-29T21:44:45.623Z,9.90
2018-09-29T21:47:14.757Z,9.90
2018-09-29T21:49:43.760Z,9.90
2018-09-29T21:52:12.902Z,9.80
2018-09-29T21:54:42.203Z,9.80
2018-09-29T21:57:11.296Z,9.80
2018-09-29T21:59:40.312Z,9.70
2018-09-29T22:02:09.336Z,9.80
2018-09-29T22:04:38.412Z,9.70
2018-09-29T22:07:07.591Z,9.70
2018-09-29T22:09:36.599Z,9.70
2018-09-29T22:12:05.634Z,9.60
2018-09-29T22:14:34.659Z,9.60
2018-09-29T22:17:03.726Z,9.60
2018-09-29T22:19:32.799Z,9.60
2018-09-29T22:22:01.930Z,9.60
2018-09-29T22:24:30.987Z,9.50
2018-09-29T22:27:00.017Z,9.50
2018-09-29T22:29:29.030Z,9.40
2018-09-29T22:31:58.068Z,9.30
2018-09-29T22:34:27.091Z,9.30
2018-09-29T22:36:56.269Z,9.30
2018-09-29T22:39:25.319Z,9.30
2018-09-29T22:41:54.543Z,9.20
2018-09-29T22:44:23.528Z,9.20
2018-09-29T22:46:52.533Z,9.20
2018-09-29T22:49:21.538Z,9.20
2018-09-29T22:51:50.553Z,9.10
2018-09-29T22:54:19.552Z,9.10
2018-09-29T22:56:48.578Z,9.00
2018-09-29T22:59:17.629Z,9.00
2018-09-29T23:01:46.812Z,9.00
2018-09-29T23:04:15.831Z,8.90
2018-09-29T23:06:44.883Z,8.90
2018-09-29T23:09:13.890Z,8.90
2018-09-29T23:11:42.965Z,8.90
2018-09-29T23:14:12.008Z,8.80
2018-09-29T23:16:41.084Z,8.70
2018-09-29T23:19:10.182Z,8.70
2018-09-29T23:21:39.416Z,8.70
2018-09-29T23:24:08.448Z,8.70
2018-09-29T23:26:37.478Z,8.60
2018-09-29T23:29:06.529Z,8.60
2018-09-29T23:31:35.555Z,8.60
2018-09-29T23:34:04.626Z,8.50
2018-09-29T23:36:33.619Z,8.50
2018-09-29T23:39:02.736Z,8.50
2018-09-29T23:41:31.803Z,8.60
2018-09-29T23:44:00.787Z,8.60
2018-09-29T23:46:29.922Z,8.60
2018-09-29T23:48:59.146Z,8.60
2018-09-29T23:51:28.189Z,8.50
2018-09-29T23:53:57.198Z,8.50
2018-09-29T23:56:26.416Z,8.50
2018-09-29T23:58:55.451Z,8.50
